Cresaptown, Maryland
Current Conditions -  °F | °C
As of 11:13 PM on Wednesday 22 Oct 2014 (Local Time) from KCBE Reporting Station
Overcast Overcast  
Wind Chill: 52°   Ceiling: 2900
Heat Index: 52°   Visibility: 10mi
Dew Point: 41°   Wind: 15mph
Humidity: 67%   Direction: 340°NNW
Pressure: 30.11"   Gusts: 25mph
Location:  39.5925°N, 78.8338°W
Report Text: KCBE 230313Z AUTO 34013G22KT 10SM OVC029 11/05 A3011 RMK AO1
Loading
Personal Weather Stations






























Interactive Weather Map
Tropical Storm Tracking
New forecast layout! Learn more

10-Day Weather Forecast

Advertisements
Track Severe Weather on mobile